Etusivu
METAR-TAF:

METAR-TAF

Lentoasemat :

Hohhot, Kiina

Leveyspiiri: 40-49N, Pituuspiiri: 111-41E, korkeus merenpinnasta: 1065 m

Tämänhetkinen sää

Tämä raportti tehtiin 36 minuuttia sitten, kello 18.00 UTC
Tuuli 17 kn pohjoisen/luoteesta
Lämpötila -4°C
Kosteus 46%
Ilmanpaine 1025 hPa
Näkyvyys 10 km tai enemmän
ei pilviä alle 1500 m:ssä eikä cumulonimbus-pilviä

METAR: ZBHH 121800Z 33009MPS CAVOK M04/M14 Q1025 NOSIG

Aika: 02:36 (18:36 UTC)

Sääennuste

Tämä raportti tehtiin 3 tuntia ja 29 minuuttia sitten, kello 15.07 UTC
Ennuste voimassa 12. päivästä klo 18 UTC - 13. päivään klo 18 UTC
Tuuli 16 kn pohjoisen/luoteesta puuskistuen 25 kn:hen
Näkyvyys 10 km tai enemmän
Muutamia pilviä 4000 ft:n korkeudessa
Tulossa
13. päivästä klo 11 UTC - 13. päivään klo 12 UTC
Tuuli 6 kn pohjoisen/luoteesta

TAF: ZBHH 121507Z 1218/1318 33008G13MPS 9999 FEW040 TXM02/07Z TNM07/23Z BECMG 1311/1312 34003MPS

Säähavainnot ja -ennusteet yli 4000 lentoasemalta (METAR- ja TAF-raportit).

Käytössä olevat sääasemat on merkitty karttaan keltaisilla ja punaisilla pisteillä.

Aseta hiiri pisteen päälle nähdäksesi sääaseman nimen.

Klikkaa sitten nähdäksesi säähavainnot ja -ennusteet.

Kartan vaihtaminen: klikkaa mustalla rastilla varustettuja vihreitä pisteitä, niin voit zoomata sisään; viivalla varustettua vihreää pistettä, niin voit zoomata ulos tai vihreitä nuolia, niin pääset viereisille kartoille.


METAR-TAF: